Terminal Aerodrome Forecast
Issued by NWS Green Bay, WI

Home | Current Version | Previous Version | Graphics & Text | Print | Product List | Glossary On
Versions: 1 2 3 4 5 6 7 8 9 10 11 12 13 14 15 16 17 18 19 20 21 22 23 24 25 26 27 28 29 30 31 32 33 34 35 36 37 38
000
FTUS43 KGRB 271728
TAFGRB
TAF
KGRB 271728Z 2718/2818 05015G24KT P6SM BKN200
     FM280200 05015KT P6SM OVC150
     FM280900 05013KT P6SM SCT060 OVC090
     FM281500 06010G16KT P6SM OVC080=

USA.gov is the U.S. government's official web portal to all federal, state and local government web resources and services.